sensor_id;sensor_type;location;lat;lon;timestamp;P1;durP1;ratioP1;P2;durP2;ratioP2
54372;SDS011;69157;53.094;10.016;2024-03-02T00:02:06;7.22;;;3.85;;
54372;SDS011;69157;53.094;10.016;2024-03-02T00:04:32;8.25;;;4.20;;
54372;SDS011;69157;53.094;10.016;2024-03-02T00:06:58;6.80;;;4.00;;
54372;SDS011;69157;53.094;10.016;2024-03-02T00:09:24;8.55;;;3.88;;
54372;SDS011;69157;53.094;10.016;2024-03-02T00:11:50;8.40;;;4.15;;
54372;SDS011;69157;53.094;10.016;2024-03-02T00:14:16;6.32;;;3.88;;
54372;SDS011;69157;53.094;10.016;2024-03-02T00:16:43;8.50;;;4.38;;
54372;SDS011;69157;53.094;10.016;2024-03-02T00:19:09;6.15;;;3.88;;
54372;SDS011;69157;53.094;10.016;2024-03-02T00:21:36;7.63;;;3.95;;
54372;SDS011;69157;53.094;10.016;2024-03-02T00:24:21;7.28;;;3.88;;
54372;SDS011;69157;53.094;10.016;2024-03-02T00:26:47;8.52;;;4.40;;
54372;SDS011;69157;53.094;10.016;2024-03-02T00:29:15;10.75;;;5.07;;
54372;SDS011;69157;53.094;10.016;2024-03-02T00:31:41;11.13;;;4.28;;
54372;SDS011;69157;53.094;10.016;2024-03-02T00:34:07;7.63;;;3.85;;
54372;SDS011;69157;53.094;10.016;2024-03-02T00:36:36;7.20;;;3.83;;
54372;SDS011;69157;53.094;10.016;2024-03-02T00:39:02;6.53;;;3.53;;
54372;SDS011;69157;53.094;10.016;2024-03-02T00:41:30;8.90;;;4.15;;
54372;SDS011;69157;53.094;10.016;2024-03-02T00:44:01;9.48;;;4.28;;
54372;SDS011;69157;53.094;10.016;2024-03-02T00:46:38;9.65;;;4.32;;
54372;SDS011;69157;53.094;10.016;2024-03-02T00:49:25;7.68;;;3.75;;
54372;SDS011;69157;53.094;10.016;2024-03-02T00:51:51;8.85;;;4.32;;
54372;SDS011;69157;53.094;10.016;2024-03-02T00:54:27;7.45;;;3.53;;
54372;SDS011;69157;53.094;10.016;2024-03-02T00:56:54;6.20;;;4.00;;
54372;SDS011;69157;53.094;10.016;2024-03-02T00:59:22;8.93;;;3.90;;
54372;SDS011;69157;53.094;10.016;2024-03-02T01:01:48;10.02;;;4.00;;
54372;SDS011;69157;53.094;10.016;2024-03-02T01:04:15;8.75;;;4.72;;
54372;SDS011;69157;53.094;10.016;2024-03-02T01:06:44;10.82;;;5.07;;
54372;SDS011;69157;53.094;10.016;2024-03-02T01:09:10;6.63;;;3.63;;
54372;SDS011;69157;53.094;10.016;2024-03-02T01:11:37;10.48;;;4.22;;
54372;SDS011;69157;53.094;10.016;2024-03-02T01:14:05;9.00;;;4.45;;
54372;SDS011;69157;53.094;10.016;2024-03-02T01:16:31;7.10;;;4.10;;
54372;SDS011;69157;53.094;10.016;2024-03-02T01:18:57;9.95;;;5.10;;
54372;SDS011;69157;53.094;10.016;2024-03-02T01:21:23;9.13;;;4.35;;
54372;SDS011;69157;53.094;10.016;2024-03-02T01:23:49;7.60;;;4.55;;
54372;SDS011;69157;53.094;10.016;2024-03-02T01:26:15;9.25;;;4.22;;
54372;SDS011;69157;53.094;10.016;2024-03-02T01:28:41;7.45;;;4.47;;
54372;SDS011;69157;53.094;10.016;2024-03-02T01:31:07;10.50;;;4.32;;
54372;SDS011;69157;53.094;10.016;2024-03-02T01:33:33;9.40;;;4.50;;
54372;SDS011;69157;53.094;10.016;2024-03-02T01:35:59;8.40;;;4.70;;
54372;SDS011;69157;53.094;10.016;2024-03-02T01:38:25;7.38;;;4.75;;
54372;SDS011;69157;53.094;10.016;2024-03-02T01:40:50;8.70;;;4.55;;
54372;SDS011;69157;53.094;10.016;2024-03-02T01:43:16;10.82;;;3.65;;
54372;SDS011;69157;53.094;10.016;2024-03-02T01:45:43;11.27;;;4.60;;
54372;SDS011;69157;53.094;10.016;2024-03-02T01:48:09;9.05;;;4.72;;
54372;SDS011;69157;53.094;10.016;2024-03-02T01:50:36;10.50;;;4.85;;
54372;SDS011;69157;53.094;10.016;2024-03-02T01:53:02;7.80;;;4.05;;
54372;SDS011;69157;53.094;10.016;2024-03-02T01:55:28;8.68;;;4.82;;
54372;SDS011;69157;53.094;10.016;2024-03-02T01:57:55;9.82;;;4.38;;
54372;SDS011;69157;53.094;10.016;2024-03-02T02:00:21;11.45;;;4.95;;
54372;SDS011;69157;53.094;10.016;2024-03-02T02:02:51;7.82;;;4.28;;
54372;SDS011;69157;53.094;10.016;2024-03-02T02:05:17;9.10;;;4.25;;
54372;SDS011;69157;53.094;10.016;2024-03-02T02:07:43;8.88;;;4.45;;
54372;SDS011;69157;53.094;10.016;2024-03-02T02:10:10;8.77;;;4.32;;
54372;SDS011;69157;53.094;10.016;2024-03-02T02:12:36;9.85;;;5.32;;
54372;SDS011;69157;53.094;10.016;2024-03-02T02:15:03;13.50;;;4.70;;
54372;SDS011;69157;53.094;10.016;2024-03-02T02:17:30;11.20;;;5.28;;
54372;SDS011;69157;53.094;10.016;2024-03-02T02:19:56;14.68;;;5.40;;
54372;SDS011;69157;53.094;10.016;2024-03-02T02:22:22;8.38;;;4.25;;
54372;SDS011;69157;53.094;10.016;2024-03-02T02:24:48;8.63;;;4.10;;
54372;SDS011;69157;53.094;10.016;2024-03-02T02:27:15;9.93;;;4.63;;
54372;SDS011;69157;53.094;10.016;2024-03-02T02:29:43;7.30;;;4.07;;
54372;SDS011;69157;53.094;10.016;2024-03-02T02:32:09;8.20;;;4.60;;
54372;SDS011;69157;53.094;10.016;2024-03-02T02:34:36;11.60;;;4.93;;
54372;SDS011;69157;53.094;10.016;2024-03-02T02:37:03;14.20;;;5.15;;
54372;SDS011;69157;53.094;10.016;2024-03-02T02:39:29;9.32;;;5.57;;
54372;SDS011;69157;53.094;10.016;2024-03-02T02:41:55;9.63;;;5.22;;
54372;SDS011;69157;53.094;10.016;2024-03-02T02:44:21;9.70;;;5.40;;
54372;SDS011;69157;53.094;10.016;2024-03-02T02:46:47;13.60;;;4.38;;
54372;SDS011;69157;53.094;10.016;2024-03-02T02:49:14;12.13;;;5.07;;
54372;SDS011;69157;53.094;10.016;2024-03-02T02:51:42;10.95;;;4.50;;
54372;SDS011;69157;53.094;10.016;2024-03-02T02:54:09;10.45;;;4.53;;
54372;SDS011;69157;53.094;10.016;2024-03-02T02:56:35;9.43;;;4.55;;
54372;SDS011;69157;53.094;10.016;2024-03-02T02:59:01;9.30;;;4.95;;
54372;SDS011;69157;53.094;10.016;2024-03-02T03:01:27;7.93;;;4.50;;
54372;SDS011;69157;53.094;10.016;2024-03-02T03:03:53;10.48;;;5.35;;
54372;SDS011;69157;53.094;10.016;2024-03-02T03:06:20;12.90;;;5.35;;
54372;SDS011;69157;53.094;10.016;2024-03-02T03:08:46;9.70;;;4.72;;
54372;SDS011;69157;53.094;10.016;2024-03-02T03:11:12;13.48;;;5.93;;
54372;SDS011;69157;53.094;10.016;2024-03-02T03:13:39;9.93;;;4.75;;
54372;SDS011;69157;53.094;10.016;2024-03-02T03:16:06;8.13;;;4.85;;
54372;SDS011;69157;53.094;10.016;2024-03-02T03:18:32;13.63;;;5.75;;
54372;SDS011;69157;53.094;10.016;2024-03-02T03:20:58;12.65;;;5.97;;
54372;SDS011;69157;53.094;10.016;2024-03-02T03:23:26;9.40;;;4.65;;
54372;SDS011;69157;53.094;10.016;2024-03-02T03:25:53;11.18;;;5.70;;
54372;SDS011;69157;53.094;10.016;2024-03-02T03:28:19;9.82;;;5.05;;
54372;SDS011;69157;53.094;10.016;2024-03-02T03:30:45;10.95;;;5.47;;
54372;SDS011;69157;53.094;10.016;2024-03-02T03:33:11;8.80;;;5.22;;
54372;SDS011;69157;53.094;10.016;2024-03-02T03:35:38;11.18;;;5.57;;
54372;SDS011;69157;53.094;10.016;2024-03-02T03:38:04;12.40;;;5.40;;
54372;SDS011;69157;53.094;10.016;2024-03-02T03:40:31;11.63;;;4.85;;
54372;SDS011;69157;53.094;10.016;2024-03-02T03:42:57;8.18;;;4.55;;
54372;SDS011;69157;53.094;10.016;2024-03-02T03:45:24;10.98;;;5.05;;
54372;SDS011;69157;53.094;10.016;2024-03-02T03:47:51;9.85;;;4.70;;
54372;SDS011;69157;53.094;10.016;2024-03-02T03:50:17;11.48;;;5.13;;
54372;SDS011;69157;53.094;10.016;2024-03-02T03:52:45;10.68;;;5.47;;
54372;SDS011;69157;53.094;10.016;2024-03-02T03:55:11;8.60;;;5.03;;
54372;SDS011;69157;53.094;10.016;2024-03-02T03:57:37;11.70;;;6.18;;
54372;SDS011;69157;53.094;10.016;2024-03-02T04:00:03;10.13;;;5.10;;
54372;SDS011;69157;53.094;10.016;2024-03-02T04:02:29;7.15;;;4.95;;
54372;SDS011;69157;53.094;10.016;2024-03-02T04:04:55;11.55;;;5.25;;
54372;SDS011;69157;53.094;10.016;2024-03-02T04:07:21;9.18;;;3.95;;
54372;SDS011;69157;53.094;10.016;2024-03-02T04:09:47;11.50;;;4.88;;
54372;SDS011;69157;53.094;10.016;2024-03-02T04:12:13;9.63;;;4.45;;
54372;SDS011;69157;53.094;10.016;2024-03-02T04:14:39;12.40;;;5.80;;
54372;SDS011;69157;53.094;10.016;2024-03-02T04:17:07;9.57;;;4.30;;
54372;SDS011;69157;53.094;10.016;2024-03-02T04:19:33;11.95;;;5.63;;
54372;SDS011;69157;53.094;10.016;2024-03-02T04:21:59;8.60;;;5.28;;
54372;SDS011;69157;53.094;10.016;2024-03-02T04:24:26;8.18;;;4.40;;
54372;SDS011;69157;53.094;10.016;2024-03-02T04:26:52;9.10;;;4.57;;
54372;SDS011;69157;53.094;10.016;2024-03-02T04:29:18;9.80;;;4.97;;
54372;SDS011;69157;53.094;10.016;2024-03-02T04:31:45;10.32;;;5.82;;
54372;SDS011;69157;53.094;10.016;2024-03-02T04:34:13;10.43;;;5.63;;
54372;SDS011;69157;53.094;10.016;2024-03-02T04:36:38;10.68;;;4.55;;
54372;SDS011;69157;53.094;10.016;2024-03-02T04:39:06;8.57;;;4.40;;
54372;SDS011;69157;53.094;10.016;2024-03-02T04:41:34;11.25;;;4.82;;
54372;SDS011;69157;53.094;10.016;2024-03-02T04:44:00;11.07;;;4.80;;
54372;SDS011;69157;53.094;10.016;2024-03-02T04:46:26;13.65;;;5.45;;
54372;SDS011;69157;53.094;10.016;2024-03-02T04:48:53;13.25;;;5.55;;
54372;SDS011;69157;53.094;10.016;2024-03-02T04:51:22;7.65;;;3.97;;
54372;SDS011;69157;53.094;10.016;2024-03-02T04:53:48;10.13;;;4.78;;
54372;SDS011;69157;53.094;10.016;2024-03-02T04:56:14;9.60;;;5.07;;
54372;SDS011;69157;53.094;10.016;2024-03-02T04:58:58;10.00;;;5.35;;
54372;SDS011;69157;53.094;10.016;2024-03-02T05:01:24;13.13;;;4.97;;
54372;SDS011;69157;53.094;10.016;2024-03-02T05:03:50;9.13;;;4.90;;
54372;SDS011;69157;53.094;10.016;2024-03-02T05:06:16;12.27;;;5.22;;
54372;SDS011;69157;53.094;10.016;2024-03-02T05:08:42;11.05;;;4.30;;
54372;SDS011;69157;53.094;10.016;2024-03-02T05:11:09;8.35;;;3.92;;
54372;SDS011;69157;53.094;10.016;2024-03-02T05:13:56;9.38;;;4.65;;
54372;SDS011;69157;53.094;10.016;2024-03-02T05:16:22;9.48;;;4.45;;
54372;SDS011;69157;53.094;10.016;2024-03-02T05:18:47;8.85;;;4.15;;
54372;SDS011;69157;53.094;10.016;2024-03-02T05:21:13;9.00;;;4.80;;
54372;SDS011;69157;53.094;10.016;2024-03-02T05:23:41;9.75;;;5.20;;
54372;SDS011;69157;53.094;10.016;2024-03-02T05:26:09;8.77;;;4.90;;
54372;SDS011;69157;53.094;10.016;2024-03-02T05:28:37;9.50;;;5.15;;
54372;SDS011;69157;53.094;10.016;2024-03-02T05:31:03;10.13;;;5.32;;
54372;SDS011;69157;53.094;10.016;2024-03-02T05:33:29;10.15;;;5.10;;
54372;SDS011;69157;53.094;10.016;2024-03-02T05:35:56;8.88;;;4.68;;
54372;SDS011;69157;53.094;10.016;2024-03-02T05:38:22;7.13;;;4.38;;
54372;SDS011;69157;53.094;10.016;2024-03-02T05:40:48;9.77;;;5.07;;
54372;SDS011;69157;53.094;10.016;2024-03-02T05:43:14;9.07;;;4.95;;
54372;SDS011;69157;53.094;10.016;2024-03-02T05:45:40;12.07;;;5.35;;
54372;SDS011;69157;53.094;10.016;2024-03-02T05:48:07;10.82;;;4.15;;
54372;SDS011;69157;53.094;10.016;2024-03-02T05:50:34;11.63;;;5.40;;
54372;SDS011;69157;53.094;10.016;2024-03-02T05:53:00;12.25;;;4.47;;
54372;SDS011;69157;53.094;10.016;2024-03-02T05:55:26;9.82;;;4.53;;
54372;SDS011;69157;53.094;10.016;2024-03-02T05:57:52;12.90;;;5.65;;
54372;SDS011;69157;53.094;10.016;2024-03-02T06:00:47;16.48;;;5.15;;
54372;SDS011;69157;53.094;10.016;2024-03-02T06:03:13;12.30;;;5.75;;
54372;SDS011;69157;53.094;10.016;2024-03-02T06:05:39;10.13;;;4.38;;
54372;SDS011;69157;53.094;10.016;2024-03-02T06:08:05;9.27;;;4.70;;
54372;SDS011;69157;53.094;10.016;2024-03-02T06:10:32;17.05;;;6.10;;
54372;SDS011;69157;53.094;10.016;2024-03-02T06:12:58;9.25;;;4.97;;
54372;SDS011;69157;53.094;10.016;2024-03-02T06:15:24;12.30;;;4.80;;
54372;SDS011;69157;53.094;10.016;2024-03-02T06:17:50;12.68;;;5.57;;
54372;SDS011;69157;53.094;10.016;2024-03-02T06:20:16;9.23;;;4.68;;
54372;SDS011;69157;53.094;10.016;2024-03-02T06:22:42;12.35;;;6.15;;
54372;SDS011;69157;53.094;10.016;2024-03-02T06:25:08;9.82;;;4.75;;
54372;SDS011;69157;53.094;10.016;2024-03-02T06:27:34;9.50;;;6.03;;
54372;SDS011;69157;53.094;10.016;2024-03-02T06:30:00;10.48;;;4.82;;
54372;SDS011;69157;53.094;10.016;2024-03-02T06:32:26;11.30;;;5.25;;
54372;SDS011;69157;53.094;10.016;2024-03-02T06:34:52;10.40;;;5.85;;
54372;SDS011;69157;53.094;10.016;2024-03-02T06:37:18;10.43;;;4.90;;
54372;SDS011;69157;53.094;10.016;2024-03-02T06:39:44;9.27;;;4.90;;
54372;SDS011;69157;53.094;10.016;2024-03-02T06:42:10;9.68;;;5.15;;
54372;SDS011;69157;53.094;10.016;2024-03-02T06:44:36;9.18;;;5.35;;
54372;SDS011;69157;53.094;10.016;2024-03-02T06:47:02;12.60;;;4.78;;
54372;SDS011;69157;53.094;10.016;2024-03-02T06:49:29;13.27;;;5.65;;
54372;SDS011;69157;53.094;10.016;2024-03-02T06:51:55;8.02;;;5.10;;
54372;SDS011;69157;53.094;10.016;2024-03-02T06:54:21;12.30;;;4.63;;
54372;SDS011;69157;53.094;10.016;2024-03-02T06:56:46;8.75;;;4.97;;
54372;SDS011;69157;53.094;10.016;2024-03-02T06:59:12;10.13;;;5.05;;
54372;SDS011;69157;53.094;10.016;2024-03-02T07:01:38;10.07;;;5.30;;
54372;SDS011;69157;53.094;10.016;2024-03-02T07:04:04;9.60;;;4.65;;
54372;SDS011;69157;53.094;10.016;2024-03-02T07:06:31;10.02;;;4.70;;
54372;SDS011;69157;53.094;10.016;2024-03-02T07:08:57;10.52;;;4.90;;
54372;SDS011;69157;53.094;10.016;2024-03-02T07:11:23;10.40;;;5.30;;
54372;SDS011;69157;53.094;10.016;2024-03-02T07:13:49;12.18;;;4.80;;
54372;SDS011;69157;53.094;10.016;2024-03-02T07:16:15;8.85;;;4.57;;
54372;SDS011;69157;53.094;10.016;2024-03-02T07:18:52;11.57;;;4.97;;
54372;SDS011;69157;53.094;10.016;2024-03-02T07:21:20;13.45;;;5.13;;
54372;SDS011;69157;53.094;10.016;2024-03-02T07:23:47;12.13;;;5.38;;
54372;SDS011;69157;53.094;10.016;2024-03-02T07:26:14;9.85;;;4.32;;
54372;SDS011;69157;53.094;10.016;2024-03-02T07:28:41;14.32;;;5.13;;
54372;SDS011;69157;53.094;10.016;2024-03-02T07:31:08;8.90;;;5.13;;
54372;SDS011;69157;53.094;10.016;2024-03-02T07:33:35;10.75;;;4.53;;
54372;SDS011;69157;53.094;10.016;2024-03-02T07:36:01;13.20;;;5.63;;
54372;SDS011;69157;53.094;10.016;2024-03-02T07:38:28;14.90;;;4.90;;
54372;SDS011;69157;53.094;10.016;2024-03-02T07:40:54;10.70;;;4.57;;
54372;SDS011;69157;53.094;10.016;2024-03-02T07:43:20;10.90;;;4.90;;
54372;SDS011;69157;53.094;10.016;2024-03-02T07:45:47;10.73;;;4.35;;
54372;SDS011;69157;53.094;10.016;2024-03-02T07:48:13;13.73;;;4.75;;
54372;SDS011;69157;53.094;10.016;2024-03-02T07:50:39;9.93;;;4.68;;
54372;SDS011;69157;53.094;10.016;2024-03-02T07:53:05;7.28;;;4.20;;
54372;SDS011;69157;53.094;10.016;2024-03-02T07:55:32;11.85;;;4.55;;
54372;SDS011;69157;53.094;10.016;2024-03-02T07:57:58;10.07;;;5.07;;
54372;SDS011;69157;53.094;10.016;2024-03-02T08:00:24;11.50;;;4.90;;
54372;SDS011;69157;53.094;10.016;2024-03-02T08:02:52;8.07;;;4.22;;
54372;SDS011;69157;53.094;10.016;2024-03-02T08:05:18;11.55;;;5.85;;
54372;SDS011;69157;53.094;10.016;2024-03-02T08:07:44;10.13;;;4.90;;
54372;SDS011;69157;53.094;10.016;2024-03-02T08:10:12;12.48;;;4.70;;
54372;SDS011;69157;53.094;10.016;2024-03-02T08:12:38;11.20;;;4.65;;
54372;SDS011;69157;53.094;10.016;2024-03-02T08:15:04;10.00;;;5.47;;
54372;SDS011;69157;53.094;10.016;2024-03-02T08:17:31;9.63;;;4.38;;
54372;SDS011;69157;53.094;10.016;2024-03-02T08:19:57;8.45;;;4.82;;
54372;SDS011;69157;53.094;10.016;2024-03-02T08:22:24;9.20;;;4.30;;
54372;SDS011;69157;53.094;10.016;2024-03-02T08:24:50;9.20;;;4.30;;
54372;SDS011;69157;53.094;10.016;2024-03-02T08:27:17;9.77;;;4.32;;
54372;SDS011;69157;53.094;10.016;2024-03-02T08:29:43;11.23;;;5.07;;
54372;SDS011;69157;53.094;10.016;2024-03-02T08:32:09;8.13;;;4.90;;
54372;SDS011;69157;53.094;10.016;2024-03-02T08:34:35;10.75;;;4.90;;
54372;SDS011;69157;53.094;10.016;2024-03-02T08:37:04;13.00;;;5.07;;
54372;SDS011;69157;53.094;10.016;2024-03-02T08:39:30;10.02;;;4.65;;
54372;SDS011;69157;53.094;10.016;2024-03-02T08:41:56;8.30;;;4.10;;
54372;SDS011;69157;53.094;10.016;2024-03-02T08:44:22;14.55;;;5.50;;
54372;SDS011;69157;53.094;10.016;2024-03-02T08:46:49;9.80;;;4.63;;
54372;SDS011;69157;53.094;10.016;2024-03-02T08:49:15;10.50;;;4.93;;
54372;SDS011;69157;53.094;10.016;2024-03-02T08:51:41;9.65;;;4.32;;
54372;SDS011;69157;53.094;10.016;2024-03-02T08:54:07;9.13;;;5.25;;
54372;SDS011;69157;53.094;10.016;2024-03-02T08:56:33;7.00;;;4.13;;
54372;SDS011;69157;53.094;10.016;2024-03-02T08:59:00;8.95;;;5.13;;
54372;SDS011;69157;53.094;10.016;2024-03-02T09:01:27;12.30;;;5.40;;
54372;SDS011;69157;53.094;10.016;2024-03-02T09:03:55;8.38;;;4.50;;
54372;SDS011;69157;53.094;10.016;2024-03-02T09:06:21;9.35;;;3.80;;
54372;SDS011;69157;53.094;10.016;2024-03-02T09:08:47;10.73;;;5.50;;
54372;SDS011;69157;53.094;10.016;2024-03-02T09:11:14;7.65;;;4.15;;
54372;SDS011;69157;53.094;10.016;2024-03-02T09:13:41;9.73;;;4.60;;
54372;SDS011;69157;53.094;10.016;2024-03-02T09:16:07;9.02;;;4.20;;
54372;SDS011;69157;53.094;10.016;2024-03-02T09:18:35;10.00;;;4.82;;
54372;SDS011;69157;53.094;10.016;2024-03-02T09:21:02;11.32;;;5.53;;
54372;SDS011;69157;53.094;10.016;2024-03-02T09:23:28;9.63;;;4.10;;
54372;SDS011;69157;53.094;10.016;2024-03-02T09:25:54;9.40;;;4.05;;
54372;SDS011;69157;53.094;10.016;2024-03-02T09:28:20;8.10;;;4.07;;
54372;SDS011;69157;53.094;10.016;2024-03-02T09:30:47;8.13;;;4.07;;
54372;SDS011;69157;53.094;10.016;2024-03-02T09:33:14;6.97;;;3.88;;
54372;SDS011;69157;53.094;10.016;2024-03-02T09:35:40;8.40;;;4.55;;
54372;SDS011;69157;53.094;10.016;2024-03-02T09:38:06;7.85;;;3.75;;
54372;SDS011;69157;53.094;10.016;2024-03-02T09:40:33;9.98;;;4.30;;
54372;SDS011;69157;53.094;10.016;2024-03-02T09:42:59;9.30;;;4.25;;
54372;SDS011;69157;53.094;10.016;2024-03-02T09:45:26;7.80;;;3.70;;
54372;SDS011;69157;53.094;10.016;2024-03-02T09:47:52;7.35;;;4.32;;
54372;SDS011;69157;53.094;10.016;2024-03-02T09:50:19;7.78;;;3.35;;
54372;SDS011;69157;53.094;10.016;2024-03-02T09:52:51;10.07;;;4.30;;
54372;SDS011;69157;53.094;10.016;2024-03-02T09:55:19;6.82;;;3.80;;
54372;SDS011;69157;53.094;10.016;2024-03-02T09:57:46;8.60;;;3.70;;
54372;SDS011;69157;53.094;10.016;2024-03-02T10:00:14;7.85;;;3.45;;
54372;SDS011;69157;53.094;10.016;2024-03-02T10:02:41;9.32;;;4.35;;
54372;SDS011;69157;53.094;10.016;2024-03-02T10:05:08;9.20;;;4.07;;
54372;SDS011;69157;53.094;10.016;2024-03-02T10:07:34;8.65;;;3.92;;
54372;SDS011;69157;53.094;10.016;2024-03-02T10:10:11;7.95;;;3.70;;
54372;SDS011;69157;53.094;10.016;2024-03-02T10:12:38;7.22;;;3.47;;
54372;SDS011;69157;53.094;10.016;2024-03-02T10:15:04;10.38;;;3.83;;
54372;SDS011;69157;53.094;10.016;2024-03-02T10:17:31;8.15;;;3.08;;
54372;SDS011;69157;53.094;10.016;2024-03-02T10:19:57;8.85;;;4.07;;
54372;SDS011;69157;53.094;10.016;2024-03-02T10:22:23;6.32;;;3.30;;
54372;SDS011;69157;53.094;10.016;2024-03-02T10:24:50;8.88;;;3.00;;
54372;SDS011;69157;53.094;10.016;2024-03-02T10:27:27;7.80;;;3.40;;
54372;SDS011;69157;53.094;10.016;2024-03-02T10:29:54;8.50;;;3.53;;
54372;SDS011;69157;53.094;10.016;2024-03-02T10:32:21;8.20;;;3.63;;
54372;SDS011;69157;53.094;10.016;2024-03-02T10:34:48;5.95;;;3.30;;
54372;SDS011;69157;53.094;10.016;2024-03-02T10:37:15;7.15;;;3.42;;
54372;SDS011;69157;53.094;10.016;2024-03-02T10:39:46;5.25;;;3.03;;
54372;SDS011;69157;53.094;10.016;2024-03-02T10:42:12;10.02;;;4.03;;
54372;SDS011;69157;53.094;10.016;2024-03-02T10:44:38;7.35;;;3.58;;
54372;SDS011;69157;53.094;10.016;2024-03-02T10:47:06;6.85;;;3.90;;
54372;SDS011;69157;53.094;10.016;2024-03-02T10:49:34;6.15;;;2.80;;
54372;SDS011;69157;53.094;10.016;2024-03-02T10:52:00;7.35;;;3.40;;
54372;SDS011;69157;53.094;10.016;2024-03-02T10:54:26;7.13;;;3.10;;
54372;SDS011;69157;53.094;10.016;2024-03-02T10:56:54;5.47;;;3.00;;
54372;SDS011;69157;53.094;10.016;2024-03-02T11:01:51;5.78;;;3.17;;
54372;SDS011;69157;53.094;10.016;2024-03-02T11:04:19;6.03;;;3.10;;
54372;SDS011;69157;53.094;10.016;2024-03-02T11:06:48;7.00;;;3.40;;
54372;SDS011;69157;53.094;10.016;2024-03-02T11:09:14;5.80;;;3.00;;
54372;SDS011;69157;53.094;10.016;2024-03-02T11:11:42;6.43;;;3.13;;
54372;SDS011;69157;53.094;10.016;2024-03-02T11:14:10;7.32;;;3.58;;
54372;SDS011;69157;53.094;10.016;2024-03-02T11:16:38;6.93;;;3.30;;
54372;SDS011;69157;53.094;10.016;2024-03-02T11:19:07;7.97;;;3.42;;
54372;SDS011;69157;53.094;10.016;2024-03-02T11:21:34;6.53;;;3.63;;
54372;SDS011;69157;53.094;10.016;2024-03-02T11:24:15;5.13;;;3.20;;
54372;SDS011;69157;53.094;10.016;2024-03-02T11:26:47;6.22;;;3.28;;
54372;SDS011;69157;53.094;10.016;2024-03-02T11:32:05;6.88;;;3.35;;
54372;SDS011;69157;53.094;10.016;2024-03-02T11:34:34;5.23;;;3.50;;
54372;SDS011;69157;53.094;10.016;2024-03-02T11:37:04;6.97;;;3.45;;
54372;SDS011;69157;53.094;10.016;2024-03-02T11:39:31;6.25;;;3.50;;
54372;SDS011;69157;53.094;10.016;2024-03-02T11:41:57;5.05;;;2.72;;
54372;SDS011;69157;53.094;10.016;2024-03-02T11:44:30;5.55;;;3.13;;
54372;SDS011;69157;53.094;10.016;2024-03-02T11:47:01;5.15;;;3.30;;
54372;SDS011;69157;53.094;10.016;2024-03-02T11:49:37;8.35;;;3.50;;
54372;SDS011;69157;53.094;10.016;2024-03-02T11:52:04;8.77;;;3.78;;
54372;SDS011;69157;53.094;10.016;2024-03-02T11:54:31;5.53;;;2.97;;
54372;SDS011;69157;53.094;10.016;2024-03-02T11:57:04;6.68;;;3.10;;
54372;SDS011;69157;53.094;10.016;2024-03-02T11:59:30;6.78;;;3.42;;
54372;SDS011;69157;53.094;10.016;2024-03-02T12:01:56;8.73;;;3.60;;
54372;SDS011;69157;53.094;10.016;2024-03-02T12:04:23;8.05;;;3.42;;
54372;SDS011;69157;53.094;10.016;2024-03-02T12:06:55;7.93;;;3.47;;
54372;SDS011;69157;53.094;10.016;2024-03-02T12:09:22;7.25;;;3.38;;
54372;SDS011;69157;53.094;10.016;2024-03-02T12:11:48;9.07;;;3.00;;
54372;SDS011;69157;53.094;10.016;2024-03-02T12:14:14;7.32;;;3.60;;
54372;SDS011;69157;53.094;10.016;2024-03-02T12:16:44;5.78;;;2.90;;
54372;SDS011;69157;53.094;10.016;2024-03-02T12:19:10;7.93;;;3.65;;
54372;SDS011;69157;53.094;10.016;2024-03-02T12:21:36;6.80;;;2.97;;
54372;SDS011;69157;53.094;10.016;2024-03-02T12:24:02;7.47;;;3.33;;
54372;SDS011;69157;53.094;10.016;2024-03-02T12:26:29;5.00;;;2.78;;
54372;SDS011;69157;53.094;10.016;2024-03-02T12:28:55;6.32;;;2.30;;
54372;SDS011;69157;53.094;10.016;2024-03-02T12:31:21;5.03;;;2.70;;
54372;SDS011;69157;53.094;10.016;2024-03-02T12:33:48;7.35;;;3.35;;
54372;SDS011;69157;53.094;10.016;2024-03-02T12:36:15;10.70;;;3.33;;
54372;SDS011;69157;53.094;10.016;2024-03-02T12:38:43;5.40;;;2.78;;
54372;SDS011;69157;53.094;10.016;2024-03-02T12:41:09;7.28;;;2.95;;
54372;SDS011;69157;53.094;10.016;2024-03-02T12:43:35;8.15;;;3.17;;
54372;SDS011;69157;53.094;10.016;2024-03-02T12:46:03;7.38;;;2.72;;
54372;SDS011;69157;53.094;10.016;2024-03-02T12:48:29;6.40;;;3.15;;
54372;SDS011;69157;53.094;10.016;2024-03-02T12:50:56;4.55;;;2.85;;
54372;SDS011;69157;53.094;10.016;2024-03-02T12:53:22;3.55;;;2.10;;
54372;SDS011;69157;53.094;10.016;2024-03-02T12:55:49;4.47;;;2.60;;
54372;SDS011;69157;53.094;10.016;2024-03-02T12:58:21;5.97;;;2.72;;
54372;SDS011;69157;53.094;10.016;2024-03-02T13:00:47;4.20;;;2.53;;
54372;SDS011;69157;53.094;10.016;2024-03-02T13:03:14;5.18;;;2.58;;
54372;SDS011;69157;53.094;10.016;2024-03-02T13:05:43;7.03;;;2.65;;
54372;SDS011;69157;53.094;10.016;2024-03-02T13:08:14;5.78;;;3.20;;
54372;SDS011;69157;53.094;10.016;2024-03-02T13:10:40;5.38;;;2.72;;
54372;SDS011;69157;53.094;10.016;2024-03-02T13:13:06;7.53;;;3.00;;
54372;SDS011;69157;53.094;10.016;2024-03-02T13:15:33;4.53;;;2.83;;
54372;SDS011;69157;53.094;10.016;2024-03-02T13:18:01;8.40;;;2.88;;
54372;SDS011;69157;53.094;10.016;2024-03-02T13:20:32;6.40;;;2.95;;
54372;SDS011;69157;53.094;10.016;2024-03-02T13:22:58;6.95;;;2.90;;
54372;SDS011;69157;53.094;10.016;2024-03-02T13:25:24;5.07;;;2.92;;
54372;SDS011;69157;53.094;10.016;2024-03-02T13:27:50;6.72;;;3.08;;
54372;SDS011;69157;53.094;10.016;2024-03-02T13:30:16;4.60;;;2.60;;
54372;SDS011;69157;53.094;10.016;2024-03-02T13:32:42;5.97;;;2.85;;
54372;SDS011;69157;53.094;10.016;2024-03-02T13:35:08;6.03;;;2.80;;
54372;SDS011;69157;53.094;10.016;2024-03-02T13:37:36;9.10;;;3.33;;
54372;SDS011;69157;53.094;10.016;2024-03-02T13:40:02;6.30;;;3.08;;
54372;SDS011;69157;53.094;10.016;2024-03-02T13:42:29;4.38;;;2.70;;
54372;SDS011;69157;53.094;10.016;2024-03-02T13:44:55;5.68;;;3.08;;
54372;SDS011;69157;53.094;10.016;2024-03-02T13:47:22;5.47;;;2.78;;
54372;SDS011;69157;53.094;10.016;2024-03-02T13:49:48;5.30;;;2.58;;
54372;SDS011;69157;53.094;10.016;2024-03-02T13:52:14;8.43;;;2.72;;
54372;SDS011;69157;53.094;10.016;2024-03-02T13:54:47;5.75;;;2.40;;
54372;SDS011;69157;53.094;10.016;2024-03-02T13:57:14;7.03;;;2.78;;
54372;SDS011;69157;53.094;10.016;2024-03-02T13:59:41;6.72;;;2.53;;
54372;SDS011;69157;53.094;10.016;2024-03-02T14:02:08;5.70;;;2.83;;
54372;SDS011;69157;53.094;10.016;2024-03-02T14:04:35;5.57;;;2.50;;
54372;SDS011;69157;53.094;10.016;2024-03-02T14:07:03;6.55;;;2.33;;
54372;SDS011;69157;53.094;10.016;2024-03-02T14:09:32;4.88;;;2.38;;
54372;SDS011;69157;53.094;10.016;2024-03-02T14:11:58;5.20;;;2.97;;
54372;SDS011;69157;53.094;10.016;2024-03-02T14:14:25;5.63;;;2.70;;
54372;SDS011;69157;53.094;10.016;2024-03-02T14:16:52;4.43;;;2.88;;
54372;SDS011;69157;53.094;10.016;2024-03-02T14:19:18;5.13;;;2.60;;
54372;SDS011;69157;53.094;10.016;2024-03-02T14:21:47;6.13;;;2.70;;
54372;SDS011;69157;53.094;10.016;2024-03-02T14:24:13;4.45;;;2.40;;
54372;SDS011;69157;53.094;10.016;2024-03-02T14:26:41;6.10;;;2.47;;
54372;SDS011;69157;53.094;10.016;2024-03-02T14:29:07;6.75;;;2.47;;
54372;SDS011;69157;53.094;10.016;2024-03-02T14:31:33;4.15;;;2.22;;
54372;SDS011;69157;53.094;10.016;2024-03-02T14:34:00;4.25;;;2.40;;
54372;SDS011;69157;53.094;10.016;2024-03-02T14:36:26;4.10;;;2.47;;